Chang-hua, Taiwan
Current Conditions -  °F | °C
As of 12:00 AM on Sunday 26 Oct 2014 (Local Time) from RCMQ Reporting Station
Broken Clouds Broken Clouds  
Wind Chill: 70°   Ceiling: 10000
Heat Index: 70°   Visibility: 4mi
Dew Point: 68°   Wind: 1mph
Humidity: 94%   Direction: 10°N
Pressure: 30.03"   Gusts: NA
Location:  24.08°N, 120.53°E
Report Text: RCMQ 251600Z 01001KT 7000 FEW012 SCT060 BKN100 21/20 Q1017 NOSIG RMK A3004
Loading
Personal Weather Stations






























Interactive Weather Map
Tropical Storm Tracking
New forecast layout! Learn more

10-Day Weather Forecast

Advertisements
Track Severe Weather on mobile